Time;durP1;ratioP1;P1;durP2;ratioP2;P2;SDS_P1;SDS_P2;PMS_P1;PMS_P2;Temp;Humidity;BMP_temperature;BMP_pressure;BME280_temperature;BME280_humidity;BME280_pressure;Samples;Min_cycle;Max_cycle;Signal;HPM_P1;HPM_P2
2022/01/13 00:02:31;;;;;;;15.57;9.52;;;0.80;75.20;;;-0.34;61.18;96767.09;5039323;28;20191;-87
2022/01/13 00:04:59;;;;;;;16.83;10.40;;;0.80;75.20;;;-0.28;61.36;96767.69;5039261;28;20709;-88
2022/01/13 00:07:27;;;;;;;19.25;10.10;;;0.90;75.20;;;-0.24;61.33;96758.91;5055612;28;20191;-89
2022/01/13 00:09:55;;;;;;;17.77;10.15;;;0.90;75.20;;;-0.21;61.01;96762.16;5055226;28;20234;-89
2022/01/13 00:12:27;;;;;;;17.58;10.07;;;1.00;75.20;;;-0.16;61.29;96774.78;5038769;28;20202;-89
2022/01/13 00:17:32;;;;;;;17.85;9.57;;;1.00;75.00;;;-0.10;60.96;96779.63;5054743;28;20223;-89
2022/01/13 00:26:01;;;;;;;14.70;9.32;;;1.10;75.00;;;0.02;60.75;96785.09;5052327;28;20216;-89
2022/01/13 00:28:29;;;;;;;17.23;9.70;;;1.20;75.00;;;0.06;61.20;96784.84;5052445;28;20202;-89
2022/01/13 00:30:58;;;;;;;17.35;9.80;;;1.20;75.00;;;0.09;61.21;96789.00;5048563;28;20310;-89
2022/01/13 00:33:26;;;;;;;18.88;9.95;;;1.20;74.90;;;0.11;60.83;96788.00;5038839;28;20200;-89
2022/01/13 00:35:59;;;;;;;19.17;10.25;;;1.30;75.00;;;0.10;60.78;96778.59;5041184;28;20223;-89
2022/01/13 00:38:28;;;;;;;17.15;9.43;;;1.30;75.00;;;0.16;61.00;96780.03;5038133;28;20330;-89
2022/01/13 00:40:57;;;;;;;17.30;10.25;;;1.30;75.00;;;0.21;60.75;96780.63;5038579;28;20223;-89
2022/01/13 00:43:25;;;;;;;17.05;9.88;;;1.30;74.90;;;0.23;60.75;96781.38;5055429;28;20672;-89
2022/01/13 00:45:53;;;;;;;18.52;9.75;;;1.30;75.00;;;0.27;60.66;96785.44;5037122;28;20219;-89
2022/01/13 00:48:21;;;;;;;18.50;10.35;;;1.40;74.90;;;0.25;60.79;96782.13;5054276;28;20259;-89
2022/01/13 00:50:49;;;;;;;20.38;11.43;;;1.40;74.80;;;0.17;60.31;96773.13;5054507;28;20223;-89
2022/01/13 00:53:17;;;;;;;18.38;10.85;;;1.50;74.70;;;0.17;60.30;96765.38;5038050;28;20200;-89
2022/01/13 00:55:59;;;;;;;17.55;10.70;;;1.40;74.50;;;0.23;60.40;96767.63;5036623;28;20251;-89
2022/01/13 00:58:33;;;;;;;18.45;10.35;;;1.40;74.60;;;0.21;60.31;96783.19;5040953;28;20222;-89
2022/01/13 01:01:03;;;;;;;18.08;10.05;;;1.50;74.60;;;0.24;60.29;96782.19;5045651;28;20227;-89
2022/01/13 01:03:32;;;;;;;16.42;9.70;;;1.50;74.50;;;0.16;60.27;96772.28;5045673;28;20214;-89
2022/01/13 01:06:03;;;;;;;21.85;10.30;;;1.50;74.50;;;0.15;60.42;96766.28;5041264;28;20253;-89
2022/01/13 01:08:32;;;;;;;17.83;10.25;;;1.50;74.60;;;0.16;60.45;96769.72;5058115;28;20294;-89
2022/01/13 01:11:03;;;;;;;18.58;11.35;;;1.40;74.50;;;0.14;60.46;96761.22;5058593;28;20758;-90
2022/01/13 01:13:33;;;;;;;19.88;10.60;;;1.50;74.50;;;0.15;60.30;96762.88;5058169;28;20207;-89
2022/01/13 01:16:07;;;;;;;18.58;10.63;;;1.40;74.60;;;0.18;60.33;96774.78;5038429;28;20223;-89
2022/01/13 01:29:07;;;;;;;18.08;10.05;;;1.40;74.40;;;0.20;60.24;96773.78;5039234;28;20192;-89
2022/01/13 01:31:39;;;;;;;19.10;10.07;;;1.50;74.40;;;0.14;60.41;96759.44;5046012;28;20298;-89
2022/01/13 01:36:38;;;;;;;16.05;9.48;;;1.40;74.40;;;0.17;60.48;96767.94;5058107;28;20222;-89
2022/01/13 01:39:07;;;;;;;18.42;10.13;;;1.50;74.40;;;0.23;60.01;96772.78;5057833;28;20310;-88
2022/01/13 01:41:44;;;;;;;19.45;10.55;;;1.40;74.30;;;0.13;60.50;96759.53;5039692;28;20219;-90
2022/01/13 01:44:23;;;;;;;15.57;10.05;;;1.40;74.30;;;0.11;60.14;96751.03;5038865;28;20226;-88
2022/01/13 01:46:51;;;;;;;18.45;10.48;;;1.50;74.30;;;0.17;60.24;96758.47;5021851;28;20226;-88
2022/01/13 01:49:22;;;;;;;18.15;10.23;;;1.40;74.30;;;0.13;60.15;96756.97;5057179;28;20195;-88
2022/01/13 01:51:57;;;;;;;17.08;9.30;;;1.40;74.30;;;0.14;60.10;96763.78;5041195;28;20226;-89
2022/01/13 01:54:27;;;;;;;16.17;9.15;;;1.40;74.20;;;0.10;60.23;96749.41;5037693;28;20191;-88
2022/01/13 01:56:57;;;;;;;15.13;9.65;;;1.40;74.20;;;0.16;60.13;96754.22;5054179;28;20226;-88
2022/01/13 01:59:29;;;;;;;17.33;9.77;;;1.40;74.20;;;0.22;60.32;96773.69;5041245;28;20217;-88
2022/01/13 02:01:58;;;;;;;16.95;9.45;;;1.40;74.30;;;0.20;60.49;96770.38;5041782;28;20191;-88
2022/01/13 02:04:27;;;;;;;18.75;9.10;;;1.40;74.30;;;0.25;60.05;96776.13;5040574;28;20203;-89
2022/01/13 02:06:59;;;;;;;15.20;8.88;;;1.40;74.30;;;0.27;60.53;96764.81;5040399;28;20282;-89
2022/01/13 02:09:27;;;;;;;14.57;9.25;;;1.50;74.30;;;0.31;60.43;96773.22;5040355;28;20203;-89
2022/01/13 02:11:59;;;;;;;18.15;10.82;;;1.40;74.30;;;0.26;60.16;96767.47;5057311;28;20215;-89
2022/01/13 02:17:03;;;;;;;19.00;10.65;;;1.50;74.30;;;0.22;59.82;96771.97;5054515;28;20204;-89
2022/01/13 02:19:33;;;;;;;16.38;9.60;;;1.50;74.10;;;0.28;59.82;96778.53;5057522;28;20199;-90
2022/01/13 02:22:02;;;;;;;16.85;9.95;;;1.50;74.30;;;0.26;60.23;96770.06;5040007;28;20215;-89
2022/01/13 02:24:31;;;;;;;18.30;9.98;;;1.40;74.20;;;0.23;60.04;96781.38;5056725;28;20203;-90
2022/01/13 02:26:59;;;;;;;15.25;8.90;;;1.50;74.20;;;0.28;60.16;96781.13;5053666;28;20234;-89
2022/01/13 02:29:27;;;;;;;16.30;9.32;;;1.50;74.20;;;0.26;60.21;96770.06;5037333;28;20211;-88
2022/01/13 02:31:54;;;;;;;14.45;8.77;;;1.50;74.40;;;0.23;60.14;96771.06;5037849;28;20200;-89
2022/01/13 02:34:22;;;;;;;16.45;9.43;;;1.50;74.40;;;0.28;60.38;96787.13;5039790;28;20290;-89
2022/01/13 02:36:54;;;;;;;17.67;10.50;;;1.50;74.50;;;0.29;60.20;96791.38;5055815;28;20219;-88
2022/01/13 02:39:25;;;;;;;14.30;9.10;;;1.50;74.40;;;0.32;60.19;96792.97;5038467;28;20229;-88
2022/01/13 02:41:53;;;;;;;14.80;8.85;;;1.50;74.40;;;0.31;60.38;96786.13;5040280;28;20610;-89
2022/01/13 02:44:22;;;;;;;14.70;8.85;;;1.40;74.80;;;0.42;60.23;96791.53;5056206;28;20257;-89
2022/01/13 02:49:22;;;;;;;13.50;8.38;;;1.50;74.40;;;0.47;60.74;96802.44;5046007;28;20218;-89
2022/01/13 02:51:53;;;;;;;14.93;9.32;;;1.60;74.50;;;0.50;60.25;96804.06;5056628;28;20223;-89
2022/01/13 02:54:22;;;;;;;15.43;9.20;;;1.60;74.40;;;0.49;60.21;96807.53;5039788;28;20202;-89
2022/01/13 02:56:50;;;;;;;17.60;9.80;;;1.60;74.50;;;0.49;60.53;96802.38;5052060;28;20224;-89
2022/01/13 02:59:18;;;;;;;15.57;9.35;;;1.70;75.30;;;0.59;60.50;96820.78;5039206;28;20235;-89
2022/01/13 03:01:45;;;;;;;15.63;9.10;;;1.70;74.50;;;0.53;60.52;96818.53;5035930;28;20212;-89
2022/01/13 03:04:13;;;;;;;15.18;9.15;;;1.80;74.60;;;0.59;60.17;96825.97;5036696;28;20224;-89
2022/01/13 03:06:41;;;;;;;14.90;9.23;;;1.70;74.40;;;0.56;60.30;96800.28;5063429;28;20231;-89
2022/01/13 03:09:15;;;;;;;17.60;9.20;;;1.80;74.50;;;0.63;60.19;96788.72;5055855;28;20206;-88
2022/01/13 03:11:45;;;;;;;14.40;8.63;;;1.70;74.40;;;0.61;60.03;96796.56;5040317;28;20677;-89
2022/01/13 03:14:14;;;;;;;15.88;9.55;;;1.80;74.50;;;0.54;60.04;96786.63;5055733;28;20222;-88
2022/01/13 03:16:44;;;;;;;16.10;9.45;;;1.80;74.30;;;0.57;59.85;96776.13;5039850;28;20211;-89
2022/01/13 03:19:12;;;;;;;16.77;10.18;;;1.80;74.30;;;0.53;60.00;96749.66;5051338;28;20623;-88
2022/01/13 03:21:40;;;;;;;17.45;11.25;;;1.80;74.20;;;0.46;59.66;96744.00;5054874;28;20234;-89
2022/01/13 03:24:11;;;;;;;19.25;10.57;;;1.70;74.00;;;0.49;59.59;96750.75;5038666;28;20195;-88
2022/01/13 03:26:38;;;;;;;19.10;10.70;;;1.70;74.00;;;0.51;59.77;96753.25;5036434;28;20223;-89
2022/01/13 03:31:40;;;;;;;16.25;9.48;;;1.70;74.10;;;0.54;59.95;96745.31;5055848;28;20257;-88
2022/01/13 03:34:09;;;;;;;19.00;10.75;;;1.70;74.00;;;0.44;59.83;96726.91;5035725;28;20196;-89
2022/01/13 03:36:36;;;;;;;19.98;11.45;;;1.70;74.00;;;0.52;59.85;96749.75;5052853;28;20227;-89
2022/01/13 03:39:07;;;;;;;18.15;10.65;;;1.70;74.00;;;0.42;59.93;96750.22;5035957;28;20257;-89
2022/01/13 03:41:36;;;;;;;18.02;10.88;;;1.80;74.00;;;0.44;59.66;96758.75;5039279;28;20211;-88
2022/01/13 03:44:08;;;;;;;18.75;11.68;;;1.70;74.00;;;0.46;59.87;96761.22;5038699;28;20231;-88
2022/01/13 03:46:37;;;;;;;19.92;10.68;;;1.70;74.00;;;0.47;60.24;96762.91;5039434;28;20218;-88
2022/01/13 03:49:07;;;;;;;16.95;10.23;;;1.70;74.10;;;0.44;60.44;96757.88;5038237;28;20234;-88
2022/01/13 03:51:58;;;;;;;18.60;11.10;;;1.70;74.10;;;0.47;60.15;96771.47;5055898;28;20251;-88
2022/01/13 03:54:32;;;;;;;17.48;11.32;;;1.70;74.20;;;0.45;60.22;96778.47;5072235;28;20203;-89
2022/01/13 03:57:38;;;;;;;18.23;11.15;;;1.70;74.10;;;0.45;60.07;96768.16;5072140;28;20241;-89
2022/01/13 04:01:07;;;;;;;20.38;10.90;;;1.60;74.00;;;0.40;60.02;96772.72;5071801;28;20269;-89
2022/01/13 04:03:37;;;;;;;17.50;10.90;;;1.70;74.00;;;0.36;60.33;96771.22;5071394;28;20191;-88
2022/01/13 04:06:33;;;;;;;21.20;11.85;;;1.60;74.00;;;0.42;60.01;96775.22;5039074;28;20217;-88
2022/01/13 04:09:08;;;;;;;20.70;11.73;;;1.60;74.10;;;0.42;60.27;96767.47;5055593;28;20286;-88
2022/01/13 04:11:36;;;;;;;21.17;11.30;;;1.60;74.10;;;0.37;60.31;96744.50;5039061;28;20687;-88
2022/01/13 04:14:06;;;;;;;21.23;12.50;;;1.60;74.20;;;0.38;60.41;96746.16;5038428;28;20230;-88
2022/01/13 04:16:36;;;;;;;19.38;11.73;;;1.70;74.30;;;0.38;60.47;96763.38;5038210;28;20234;-89
2022/01/13 04:19:06;;;;;;;17.73;10.90;;;1.60;74.30;;;0.42;60.34;96762.31;5038571;28;20211;-89
2022/01/13 04:21:40;;;;;;;18.98;11.45;;;1.60;74.30;;;0.41;60.65;96758.88;5034702;28;20211;-90
2022/01/13 04:24:11;;;;;;;19.95;11.93;;;1.70;74.50;;;0.39;60.50;96744.41;5028497;28;20196;-89
2022/01/13 04:26:44;;;;;;;19.55;11.88;;;1.60;74.40;;;0.37;60.54;96739.34;5035705;28;20220;-88
2022/01/13 04:31:46;;;;;;;19.52;11.57;;;1.60;75.30;;;0.46;60.83;96758.66;5058158;28;20243;-89
2022/01/13 04:34:14;;;;;;;18.88;10.77;;;1.60;74.60;;;0.46;60.65;96759.50;5044565;28;20187;-89
2022/01/13 04:36:41;;;;;;;18.52;11.55;;;1.60;74.60;;;0.45;60.79;96749.22;5039710;28;20747;-89
2022/01/13 04:39:11;;;;;;;20.98;12.25;;;1.60;74.60;;;0.47;60.62;96758.56;5042690;28;20219;-89
2022/01/13 04:41:43;;;;;;;18.60;11.57;;;1.60;74.60;;;0.53;60.88;96764.31;5042734;28;20694;-89
2022/01/13 04:44:18;;;;;;;18.27;11.35;;;1.70;74.60;;;0.50;60.77;96767.06;5043170;28;20654;-88
2022/01/13 04:46:50;;;;;;;20.17;11.93;;;1.70;74.70;;;0.51;60.67;96768.72;5042426;28;20276;-89
2022/01/13 04:49:19;;;;;;;20.60;11.77;;;1.70;74.80;;;0.50;60.79;96770.50;5042095;28;20211;-89
2022/01/13 04:51:50;;;;;;;22.67;12.40;;;1.70;74.80;;;0.53;60.95;96779.81;5056295;28;20215;-89
2022/01/13 04:54:18;;;;;;;21.02;12.55;;;1.70;74.80;;;0.51;61.18;96777.28;5040999;28;20558;-88
2022/01/13 04:59:16;;;;;;;24.23;12.90;;;1.70;74.90;;;0.55;61.02;96765.06;5052596;28;20299;-89
2022/01/13 05:01:44;;;;;;;22.88;12.95;;;1.60;74.80;;;0.54;61.08;96758.22;5038461;28;20573;-88
2022/01/13 05:04:12;;;;;;;23.20;13.48;;;1.70;75.00;;;0.54;61.25;96774.56;5054019;28;20192;-89
2022/01/13 05:06:40;;;;;;;26.90;13.90;;;1.70;75.00;;;0.51;61.32;96771.31;5053569;28;20227;-90
2022/01/13 05:09:08;;;;;;;26.48;14.02;;;1.70;75.00;;;0.54;61.61;96771.13;5053605;28;20203;-89
2022/01/13 05:11:35;;;;;;;26.77;14.07;;;1.70;75.00;;;0.50;61.32;96777.38;5036661;28;20223;-89
2022/01/13 05:14:05;;;;;;;26.48;15.18;;;1.70;75.10;;;0.47;61.29;96780.97;5053377;28;20268;-88
2022/01/13 05:16:52;;;;;;;25.60;14.73;;;1.70;75.10;;;0.44;61.65;96786.28;5053665;28;20230;-88
2022/01/13 05:19:36;;;;;;;23.17;13.15;;;1.70;75.20;;;0.49;62.00;96784.31;5056657;28;20223;-89
2022/01/13 05:24:33;;;;;;;21.98;13.38;;;1.70;75.40;;;0.46;62.16;96779.31;5053881;28;20211;-89
2022/01/13 05:27:01;;;;;;;23.65;13.68;;;1.70;75.40;;;0.44;62.14;96773.38;5054663;28;20207;-89
2022/01/13 05:29:29;;;;;;;27.75;14.85;;;1.70;75.40;;;0.47;62.20;96778.38;5036516;28;20219;-89
2022/01/13 05:31:56;;;;;;;24.63;14.30;;;1.70;75.50;;;0.44;62.07;96776.81;5034393;28;20208;-89
2022/01/13 05:34:24;;;;;;;24.52;14.45;;;1.70;75.50;;;0.46;62.39;96771.56;5038208;28;20227;-89
2022/01/13 05:37:10;;;;;;;25.75;13.75;;;1.70;75.60;;;0.40;62.84;96769.31;5047234;28;20673;-89
2022/01/13 05:39:38;;;;;;;25.25;14.13;;;1.70;75.70;;;0.49;62.67;96771.41;5041068;28;20704;-89
2022/01/13 05:42:06;;;;;;;25.92;15.00;;;1.70;75.50;;;0.46;62.65;96759.50;5039957;28;20204;-88
2022/01/13 05:44:38;;;;;;;24.38;14.55;;;1.60;75.50;;;0.43;62.86;96762.22;5037523;28;20222;-89
2022/01/13 05:47:09;;;;;;;24.70;13.80;;;1.70;75.60;;;0.40;62.67;96752.06;5071240;28;20229;-89
2022/01/13 05:49:41;;;;;;;23.48;14.35;;;1.70;75.70;;;0.43;62.86;96754.47;5041496;28;20210;-89
2022/01/13 05:52:11;;;;;;;21.90;13.43;;;1.60;75.80;;;0.38;62.94;96741.00;5041362;28;20740;-89
2022/01/13 05:54:39;;;;;;;23.38;13.27;;;1.60;76.60;;;0.38;62.89;96730.69;5040858;28;20249;-89
2022/01/13 05:57:07;;;;;;;22.40;13.70;;;1.70;75.90;;;0.44;62.98;96735.50;5040826;28;20192;-89
2022/01/13 05:59:36;;;;;;;30.13;15.57;;;1.60;75.90;;;0.33;63.88;96724.94;5040746;28;20325;-89
2022/01/13 06:02:05;;;;;;;24.27;13.77;;;1.60;76.10;;;0.37;63.42;96725.59;5038505;28;20195;-89
2022/01/13 06:04:33;;;;;;;26.80;14.23;;;1.60;76.10;;;0.35;63.53;96723.09;5056235;28;20734;-89
2022/01/13 06:07:01;;;;;;;29.98;15.18;;;1.60;76.20;;;0.41;63.57;96727.91;5036912;28;20199;-88
2022/01/13 06:09:29;;;;;;;24.85;14.52;;;1.60;75.50;;;0.37;63.91;96748.84;5050533;28;20191;-89
2022/01/13 06:12:02;;;;;;;23.83;13.98;;;1.60;76.30;;;0.38;63.93;96745.31;5040950;28;20555;-89
2022/01/13 06:14:30;;;;;;;23.08;13.20;;;1.60;76.40;;;0.29;63.97;96737.19;5033791;28;20204;-90
2022/01/13 06:16:58;;;;;;;27.15;14.70;;;1.60;76.40;;;0.34;64.65;96752.38;5037123;28;20618;-89
2022/01/13 06:19:25;;;;;;;24.67;12.98;;;1.60;76.60;;;0.34;64.53;96754.97;5039578;28;20223;-89
2022/01/13 06:21:54;;;;;;;21.55;13.23;;;1.60;76.50;;;0.28;64.36;96742.41;5038060;28;20219;-89
2022/01/13 06:24:22;;;;;;;22.30;12.13;;;1.60;76.60;;;0.32;63.99;96741.34;5039887;28;20199;-88
2022/01/13 06:26:50;;;;;;;22.67;12.48;;;1.60;76.60;;;0.31;64.13;96743.06;5040221;28;20215;-89
2022/01/13 06:29:19;;;;;;;21.55;12.88;;;1.60;76.60;;;0.27;64.54;96733.84;5040785;28;20200;-90
2022/01/13 06:31:47;;;;;;;19.27;11.75;;;1.60;76.80;;;0.30;64.57;96738.00;5040695;28;20215;-89
2022/01/13 06:34:14;;;;;;;19.92;12.50;;;1.60;76.80;;;0.27;64.82;96740.72;5036652;28;20276;-89
2022/01/13 06:36:42;;;;;;;20.15;12.20;;;1.60;76.90;;;0.27;64.58;96741.56;5048589;28;20216;-90
2022/01/13 06:39:09;;;;;;;26.33;12.63;;;1.50;76.80;;;0.21;64.78;96741.91;5045239;28;20269;-90
2022/01/13 06:41:41;;;;;;;22.10;12.45;;;1.50;76.90;;;0.22;65.15;96755.63;5036860;28;20226;-89
2022/01/13 06:44:09;;;;;;;19.67;12.30;;;1.50;77.00;;;0.12;65.11;96739.81;5051251;28;20195;-88
2022/01/13 06:46:37;;;;;;;21.60;12.00;;;1.50;77.10;;;0.15;65.15;96744.81;5030398;28;20297;-89
2022/01/13 06:49:05;;;;;;;20.17;12.07;;;1.50;77.10;;;0.20;65.21;96766.03;5056458;28;20196;-89
2022/01/13 06:51:34;;;;;;;22.48;12.43;;;1.40;77.10;;;0.14;65.25;96753.47;5040117;28;20229;-89
2022/01/13 06:54:01;;;;;;;22.73;12.55;;;1.50;77.10;;;0.17;64.97;96766.19;5056234;28;20649;-89
2022/01/13 06:56:31;;;;;;;22.25;12.48;;;1.50;77.10;;;0.11;65.30;96762.22;5056734;28;20335;-88
2022/01/13 06:59:05;;;;;;;22.30;12.98;;;1.50;77.10;;;0.12;65.24;96773.34;5038436;28;20266;-88
2022/01/13 07:01:32;;;;;;;24.90;13.40;;;1.40;77.10;;;0.06;65.18;96761.63;5039785;28;20222;-89
2022/01/13 07:04:00;;;;;;;22.40;12.82;;;1.40;77.20;;;0.15;65.33;96776.59;5038273;28;20206;-89
2022/01/13 07:06:29;;;;;;;21.85;12.93;;;1.40;77.20;;;0.10;65.19;96772.63;5049116;28;20267;-88
2022/01/13 07:08:56;;;;;;;22.83;12.57;;;1.40;77.10;;;0.03;64.97;96777.25;5052888;28;20196;-89
2022/01/13 07:11:24;;;;;;;20.60;11.90;;;1.40;77.10;;;0.03;64.42;96766.13;5036366;28;20219;-88
2022/01/13 07:13:52;;;;;;;22.65;12.60;;;1.40;77.00;;;0.04;64.16;96778.06;5036268;28;20204;-89
2022/01/13 07:16:21;;;;;;;23.33;12.68;;;1.30;76.70;;;-0.01;64.50;96793.81;5045506;28;20261;-88
2022/01/13 07:18:49;;;;;;;21.98;12.75;;;1.30;76.70;;;-0.07;64.51;96786.41;5039540;28;20241;-89
2022/01/13 07:21:19;;;;;;;21.45;12.60;;;1.30;76.60;;;-0.20;64.84;96776.69;5039700;28;20218;-89
2022/01/13 07:23:47;;;;;;;21.88;13.38;;;1.20;76.70;;;-0.24;64.80;96782.94;5039841;28;20240;-89
2022/01/13 07:26:15;;;;;;;22.88;13.70;;;1.20;76.70;;;-0.32;65.04;96769.59;5039223;28;20221;-90
2022/01/13 07:28:43;;;;;;;22.00;12.35;;;1.10;76.70;;;-0.35;64.91;96775.75;5035809;28;20196;-89
2022/01/13 07:31:14;;;;;;;19.90;12.25;;;1.10;76.80;;;-0.36;64.97;96789.53;5043887;28;20252;-89
2022/01/13 07:33:43;;;;;;;20.98;12.45;;;1.10;76.80;;;-0.36;65.03;96786.97;5055690;28;20206;-89
2022/01/13 07:36:11;;;;;;;21.75;12.80;;;1.00;76.80;;;-0.37;65.34;96793.03;5039367;28;20268;-89
2022/01/13 07:38:38;;;;;;;21.20;12.60;;;1.00;76.90;;;-0.43;65.30;96783.03;5055378;28;20198;-89
2022/01/13 07:41:06;;;;;;;24.20;13.57;;;0.90;76.90;;;-0.42;65.21;96792.44;5038904;28;20225;-89
2022/01/13 07:43:34;;;;;;;21.60;12.43;;;1.00;77.00;;;-0.37;65.33;96789.63;5036042;28;20204;-89
2022/01/13 07:46:02;;;;;;;20.95;13.02;;;0.90;77.10;;;-0.43;65.43;96774.47;5039288;28;20219;-89
2022/01/13 07:48:30;;;;;;;24.58;13.80;;;0.90;77.10;;;-0.42;65.52;96789.03;5039100;28;20230;-89
2022/01/13 07:50:58;;;;;;;26.08;13.23;;;0.90;77.20;;;-0.35;65.66;96800.69;5038807;28;20245;-89
2022/01/13 07:53:26;;;;;;;27.20;13.80;;;0.90;77.30;;;-0.38;65.49;96787.94;5035028;28;20205;-89
2022/01/13 07:55:54;;;;;;;23.63;12.68;;;0.90;77.40;;;-0.29;65.33;96795.22;5055303;28;20211;-89
2022/01/13 07:58:21;;;;;;;23.52;13.45;;;0.90;77.30;;;-0.33;64.89;96779.09;5055340;28;20249;-89
2022/01/13 08:00:51;;;;;;;24.70;13.23;;;0.90;77.20;;;-0.28;65.03;96775.41;5035704;28;20228;-89
2022/01/13 08:03:19;;;;;;;21.33;12.73;;;1.00;77.20;;;-0.30;64.99;96782.44;5035770;28;20243;-90
2022/01/13 08:05:47;;;;;;;21.80;13.30;;;0.90;77.20;;;-0.22;65.22;96790.59;5025313;28;20239;-88
2022/01/13 08:08:15;;;;;;;22.95;13.68;;;1.00;77.30;;;-0.24;64.90;96788.09;5039040;28;20195;-89
2022/01/13 08:10:42;;;;;;;23.35;13.77;;;1.00;77.20;;;-0.23;64.79;96784.59;5054892;28;20356;-89
2022/01/13 08:13:11;;;;;;;21.85;12.55;;;1.00;77.30;;;-0.15;65.05;96784.19;5038146;28;20195;-90
2022/01/13 08:15:40;;;;;;;23.50;13.02;;;1.00;77.20;;;-0.10;64.79;96789.94;5035388;28;20269;-89
2022/01/13 08:20:55;;;;;;;23.23;13.05;;;1.10;77.30;;;-0.09;64.65;96785.63;5057114;28;20230;-90
2022/01/13 08:23:23;;;;;;;23.50;13.90;;;1.10;77.30;;;0.04;64.60;96788.41;5051445;28;20246;-92
2022/01/13 08:25:51;;;;;;;22.27;13.02;;;1.10;77.30;;;0.04;64.35;96775.50;5039024;28;20706;-91
2022/01/13 08:28:18;;;;;;;25.70;14.07;;;1.20;77.40;;;0.12;64.53;96781.94;5039100;28;20272;-91
2022/01/13 08:30:49;;;;;;;21.52;13.07;;;1.20;77.50;;;0.27;64.42;96788.03;5054034;28;20223;-90
2022/01/13 08:33:18;;;;;;;20.85;11.77;;;1.30;77.60;;;0.40;64.35;96797.69;5038578;28;20200;-91
2022/01/13 08:35:46;;;;;;;21.02;12.52;;;1.30;77.80;;;0.57;64.02;96792.44;5038851;28;20223;-92
2022/01/13 08:38:19;;;;;;;21.75;12.95;;;1.40;77.80;;;0.70;63.85;96790.03;5051485;28;20299;-90
2022/01/13 08:40:49;;;;;;;22.58;12.93;;;1.50;77.70;;;0.79;63.39;96799.88;5035314;28;20258;-92
2022/01/13 08:43:17;;;;;;;21.15;12.77;;;1.60;77.60;;;0.95;63.33;96809.34;5052061;28;20299;-92
2022/01/13 08:45:46;;;;;;;22.83;13.45;;;1.70;77.50;;;1.05;63.10;96815.69;5023331;28;20273;-92
2022/01/13 08:48:16;;;;;;;21.05;13.15;;;1.80;77.30;;;1.14;63.01;96818.69;5049377;28;20211;-92
2022/01/13 08:50:45;;;;;;;23.40;13.55;;;1.90;77.30;;;1.22;62.94;96816.47;5034649;28;20220;-92
2022/01/13 08:53:16;;;;;;;21.20;12.98;;;2.00;78.00;;;1.34;62.41;96823.53;5069177;28;20566;-89
2022/01/13 08:55:47;;;;;;;22.95;12.35;;;2.20;77.20;;;1.38;62.61;96821.59;5035298;28;20224;-92
2022/01/13 08:58:14;;;;;;;20.98;12.98;;;2.20;76.90;;;1.47;62.33;96834.03;5049466;28;20631;-91
2022/01/13 09:00:43;;;;;;;21.75;12.60;;;2.30;76.90;;;1.57;61.70;96845.50;5034116;28;20258;-93
2022/01/13 09:03:11;;;;;;;21.08;11.88;;;2.40;76.60;;;1.59;61.62;96848.00;5029520;28;20256;-92
2022/01/13 09:05:41;;;;;;;19.10;11.68;;;2.40;76.60;;;1.59;61.83;96830.72;5038071;28;20231;-93
2022/01/13 09:08:12;;;;;;;22.48;12.27;;;2.50;76.50;;;1.69;61.24;96838.78;5038252;28;20204;-92
2022/01/13 09:10:50;;;;;;;21.17;12.55;;;2.50;76.30;;;1.71;61.49;96842.13;5054244;28;20287;-92
2022/01/13 09:13:19;;;;;;;22.08;12.18;;;2.60;76.20;;;1.79;61.20;96848.63;5039662;28;20606;-92
2022/01/13 09:15:58;;;;;;;20.42;12.00;;;2.70;76.20;;;1.77;61.21;96828.00;5054904;28;20228;-91
2022/01/13 09:18:44;;;;;;;20.63;12.32;;;2.80;76.10;;;1.85;61.16;96845.66;5039867;28;20226;-91
2022/01/13 09:21:16;;;;;;;22.33;13.25;;;2.80;76.10;;;1.87;60.60;96841.25;5046603;28;20277;-92
2022/01/13 09:23:44;;;;;;;20.60;12.82;;;2.90;75.90;;;1.89;60.62;96829.88;5057769;28;20233;-92
2022/01/13 09:26:13;;;;;;;22.02;12.50;;;2.80;75.70;;;1.94;59.89;96833.94;5057413;28;20212;-91
2022/01/13 09:28:42;;;;;;;21.88;13.05;;;2.90;75.50;;;2.01;60.57;96827.47;5036007;28;20259;-92
2022/01/13 09:31:10;;;;;;;21.95;13.35;;;3.00;75.70;;;2.08;60.74;96821.84;5057347;28;20579;-92
2022/01/13 09:33:38;;;;;;;23.73;13.88;;;3.00;76.00;;;2.25;59.91;96822.59;5041153;28;20199;-91
2022/01/13 09:36:07;;;;;;;20.30;11.98;;;3.00;76.60;;;2.32;59.73;96817.84;5041266;28;20314;-93
2022/01/13 09:38:49;;;;;;;22.40;12.95;;;3.20;75.80;;;2.37;60.02;96800.31;5058867;28;20223;-93
2022/01/13 09:41:22;;;;;;;20.40;12.05;;;3.20;75.60;;;2.50;59.57;96816.75;5042282;28;20231;-92
2022/01/13 09:43:52;;;;;;;20.00;11.90;;;3.30;75.60;;;2.54;59.50;96799.28;5039024;28;20205;-92
2022/01/13 09:46:22;;;;;;;19.55;11.93;;;3.40;75.50;;;2.63;58.60;96803.03;5048658;28;20216;-93
2022/01/13 09:49:08;;;;;;;23.65;13.43;;;3.50;75.20;;;2.65;57.92;96808.94;5039912;28;20275;-92
2022/01/13 09:51:47;;;;;;;21.45;12.93;;;3.50;75.20;;;2.57;58.00;96791.28;5037885;28;20261;-92
2022/01/13 09:54:20;;;;;;;20.85;12.18;;;3.50;74.40;;;2.61;57.78;96789.34;5038684;28;20192;-92
2022/01/13 09:56:49;;;;;;;22.63;13.30;;;3.50;74.30;;;2.66;58.04;96788.13;5037238;28;20215;-92
2022/01/13 09:59:17;;;;;;;21.00;12.45;;;3.60;74.40;;;2.74;57.80;96797.19;5052989;28;20200;-91
2022/01/13 10:01:58;;;;;;;18.98;12.38;;;3.70;74.40;;;2.74;57.67;96777.28;5038137;28;20911;-91
2022/01/13 10:04:47;;;;;;;22.13;12.75;;;3.70;74.20;;;2.84;58.21;96778.34;5051703;28;20195;-93
2022/01/13 10:07:41;;;;;;;19.92;12.30;;;3.70;74.30;;;3.03;58.33;96777.19;5069006;28;20196;-94
2022/01/13 10:10:31;;;;;;;21.25;12.48;;;3.80;74.30;;;3.11;58.01;96766.31;5042310;28;20215;-94
2022/01/13 10:13:10;;;;;;;20.13;11.98;;;3.80;74.40;;;3.23;57.34;96762.09;5040865;28;20203;-94
2022/01/13 10:18:47;;;;;;;21.20;12.15;;;4.10;74.20;;;3.37;56.80;96743.88;5051105;28;20195;-90
2022/01/13 10:21:18;;;;;;;21.58;12.55;;;4.10;73.90;;;3.50;57.16;96747.31;5047656;28;20246;-91
2022/01/13 10:24:12;;;;;;;19.65;12.25;;;4.30;73.90;;;3.52;56.55;96761.00;5045943;28;20239;-90
2022/01/13 10:27:02;;;;;;;21.73;12.98;;;4.30;73.40;;;3.48;56.01;96731.03;5054320;28;20732;-92
2022/01/13 10:29:54;;;;;;;22.65;12.48;;;4.30;72.90;;;3.47;56.05;96733.72;5036454;28;20254;-92
2022/01/13 10:32:37;;;;;;;19.80;12.27;;;4.40;73.10;;;3.49;56.07;96731.84;5036441;28;20241;-92
2022/01/13 10:35:07;;;;;;;19.30;11.55;;;4.40;72.80;;;3.51;55.82;96736.00;5036561;28;20302;-92
2022/01/13 10:37:38;;;;;;;16.90;11.07;;;4.40;72.80;;;3.57;56.37;96726.16;5052808;28;20203;-91
2022/01/13 10:40:22;;;;;;;17.60;10.05;;;4.40;73.00;;;3.62;57.11;96735.28;5039579;28;20591;-92
2022/01/13 10:45:32;;;;;;;19.15;11.45;;;4.50;73.10;;;3.76;56.05;96733.50;5055320;28;20219;-90
2022/01/13 10:48:16;;;;;;;19.33;11.25;;;4.60;73.00;;;3.82;55.68;96746.91;5035705;28;20207;-93
2022/01/13 10:50:54;;;;;;;21.10;12.23;;;4.60;72.60;;;3.86;54.74;96744.94;5088482;28;20692;-92
2022/01/13 10:53:41;;;;;;;19.08;11.63;;;4.70;72.20;;;3.76;54.55;96725.72;5038050;28;20202;-91
2022/01/13 10:56:14;;;;;;;20.60;12.05;;;4.70;72.30;;;3.81;54.77;96734.88;5036164;28;20255;-91
2022/01/13 10:58:54;;;;;;;18.80;12.48;;;4.80;72.20;;;3.74;54.70;96731.03;5039925;28;20230;-92
2022/01/13 11:01:34;;;;;;;18.67;11.88;;;4.70;72.20;;;3.71;54.13;96720.88;5035946;28;20688;-92
2022/01/13 11:04:16;;;;;;;21.42;12.68;;;4.70;71.60;;;3.68;54.30;96723.66;5036052;28;20265;-93
2022/01/13 11:06:52;;;;;;;22.45;12.65;;;4.70;71.80;;;3.69;54.68;96730.50;5051179;28;20339;-92
2022/01/13 11:09:28;;;;;;;20.67;11.65;;;4.70;71.80;;;3.71;54.58;96728.66;5030723;28;20311;-93
2022/01/13 11:12:03;;;;;;;17.80;11.48;;;4.70;71.70;;;3.70;54.18;96729.59;5040386;28;20187;-93
2022/01/13 11:14:40;;;;;;;20.38;12.00;;;4.70;71.80;;;3.78;54.92;96729.88;5039529;28;20207;-94
2022/01/13 11:17:20;;;;;;;19.20;10.90;;;4.70;72.20;;;3.91;55.09;96734.25;5037345;28;20226;-93
2022/01/13 11:19:57;;;;;;;19.92;12.18;;;4.80;72.20;;;3.99;54.44;96730.19;5042154;28;20243;-92
2022/01/13 11:22:35;;;;;;;21.45;11.77;;;4.90;72.10;;;3.95;54.04;96726.13;5056467;28;20214;-92
2022/01/13 11:25:08;;;;;;;19.13;12.10;;;4.90;71.70;;;3.98;54.12;96728.53;5055949;28;20700;-94